Terminal Aerodrome Forecast
Issued by NWS Wilmington, OH

Current Version | Previous Version | Graphics & Text | Print | Product List | Glossary On
Versions: 1 2 3 4 5 6 7 8 9 10 11 12 13 14 15 16 17 18 19 20 21 22 23 24 25 26 27 28 29 30 31 32 33 34 35 36
000
FTUS41 KILN 261100
TAFCVG
TAF
KCVG 261130Z 2612/2718 VRB05KT P6SM SCT012 SCT120
      TEMPO 2612/2615 BKN012
     FM270000 04005KT P6SM BKN015
     FM270600 34007KT P6SM BKN015
     FM271200 31010KT P6SM BKN015=

USA.gov is the U.S. government's official web portal to all federal, state and local government web resources and services.